Terminal Aerodrome Forecast
Issued by NWS Sterling, VA

Current Version | Previous Version | Graphics & Text | Print | Product List | Glossary On
Versions: 1 2 3 4 5 6 7 8 9 10 11 12 13 14 15 16 17 18 19 20 21 22 23 24 25 26 27 28 29 30 31
154
FTUS41 KLWX 171722
TAFIAD
TAF
KIAD 171722Z 1718/1824 18006KT P6SM VCTS SCT045CB BKN130
     FM180300 18006KT P6SM SCT040 BKN250
     FM180900 20005KT 3SM BR BKN010 BKN040
     FM181500 21006KT P6SM SCT040 BKN150
     FM181800 21007KT P6SM -SHRA VCTS SCT050CB BKN120
     FM182100 24008KT P6SM SCT045 BKN100=

USA.gov is the U.S. government's official web portal to all federal, state and local government web resources and services.